createdAt,value
2022-10-22T00:01:36.575Z,11.60
2022-10-22T00:04:04.953Z,10.98
2022-10-22T00:06:33.802Z,11.23
2022-10-22T00:09:02.142Z,12.20
2022-10-22T00:11:30.530Z,12.15
2022-10-22T00:14:01.544Z,13.00
2022-10-22T00:16:31.297Z,12.90
2022-10-22T00:18:59.695Z,9.48
2022-10-22T00:21:29.198Z,10.90
2022-10-22T00:23:57.756Z,10.30
2022-10-22T00:26:26.009Z,13.30
2022-10-22T00:28:55.290Z,12.52
2022-10-22T00:31:23.501Z,12.80
2022-10-22T00:33:53.278Z,13.15
2022-10-22T00:36:21.583Z,13.88
2022-10-22T00:38:49.992Z,12.52
2022-10-22T00:41:18.348Z,12.52
2022-10-22T00:44:02.921Z,12.93
2022-10-22T00:46:31.670Z,13.38
2022-10-22T00:49:04.417Z,13.30
2022-10-22T00:51:35.680Z,11.70
2022-10-22T00:54:08.372Z,12.50
2022-10-22T00:56:36.930Z,12.25
2022-10-22T00:59:05.930Z,11.35
2022-10-22T01:01:34.268Z,12.38
2022-10-22T01:04:03.893Z,12.60
2022-10-22T01:06:34.822Z,11.02
2022-10-22T01:09:16.953Z,10.23
2022-10-22T01:12:00.532Z,10.80
2022-10-22T01:14:39.826Z,13.32
2022-10-22T01:20:10.324Z,14.05
2022-10-22T01:22:46.596Z,10.38
2022-10-22T01:25:22.583Z,14.32
2022-10-22T01:28:06.911Z,13.82
2022-10-22T01:30:38.360Z,12.57
2022-10-22T01:33:11.889Z,11.30
2022-10-22T01:35:44.774Z,9.90
2022-10-22T01:38:17.591Z,11.70
2022-10-22T01:40:46.864Z,13.68
2022-10-22T01:43:15.366Z,9.52
2022-10-22T01:45:48.812Z,11.07
2022-10-22T01:48:35.917Z,9.57
2022-10-22T01:51:28.053Z,11.85
2022-10-22T01:54:04.087Z,14.38
2022-10-22T01:56:50.904Z,12.48
2022-10-22T01:59:34.077Z,12.35
2022-10-22T02:02:11.623Z,12.07
2022-10-22T02:04:46.818Z,14.02
2022-10-22T02:07:19.715Z,12.05
2022-10-22T02:09:52.737Z,11.00
2022-10-22T02:12:23.945Z,11.05
2022-10-22T02:14:53.178Z,13.68
2022-10-22T02:17:24.046Z,14.38
2022-10-22T02:20:02.114Z,11.73
2022-10-22T02:22:31.272Z,10.57
2022-10-22T02:25:00.152Z,9.85
2022-10-22T02:27:33.178Z,13.00
2022-10-22T02:30:06.928Z,10.57
2022-10-22T02:32:43.448Z,14.50
2022-10-22T02:35:15.896Z,13.27
2022-10-22T02:37:45.413Z,14.18
2022-10-22T02:40:15.511Z,12.23
2022-10-22T02:42:44.586Z,11.43
2022-10-22T02:45:12.842Z,8.27
2022-10-22T02:47:43.163Z,16.38
2022-10-22T02:50:12.791Z,12.00
2022-10-22T02:52:43.210Z,11.55
2022-10-22T02:55:12.178Z,17.00
2022-10-22T02:57:43.678Z,13.57
2022-10-22T03:00:14.260Z,12.05
2022-10-22T03:02:44.125Z,10.95
2022-10-22T03:05:12.391Z,13.93
2022-10-22T03:07:43.719Z,9.50
2022-10-22T03:10:12.128Z,11.60
2022-10-22T03:12:40.744Z,11.70
2022-10-22T03:15:12.935Z,12.05
2022-10-22T03:17:45.588Z,12.82
2022-10-22T03:20:16.297Z,14.27
2022-10-22T03:22:47.178Z,14.05
2022-10-22T03:25:21.068Z,11.48
2022-10-22T03:27:51.844Z,15.93
2022-10-22T03:30:20.242Z,11.40
2022-10-22T03:32:50.838Z,12.50
2022-10-22T03:35:20.649Z,15.30
2022-10-22T03:37:49.100Z,12.75
2022-10-22T03:40:18.031Z,13.30
2022-10-22T03:42:48.047Z,11.68
2022-10-22T03:45:18.635Z,10.70
2022-10-22T03:47:46.938Z,9.63
2022-10-22T03:50:17.222Z,12.25
2022-10-22T03:52:47.958Z,10.63
2022-10-22T03:55:16.106Z,13.25
2022-10-22T03:57:44.273Z,11.40
2022-10-22T04:00:13.128Z,10.75
2022-10-22T04:02:41.336Z,12.57
2022-10-22T04:05:10.114Z,14.90
2022-10-22T04:07:40.175Z,15.18
2022-10-22T04:10:09.765Z,11.93
2022-10-22T04:12:39.175Z,14.27
2022-10-22T04:15:09.805Z,14.85
2022-10-22T04:17:39.063Z,13.70
2022-10-22T04:20:09.098Z,13.25
2022-10-22T04:22:41.337Z,11.70
2022-10-22T04:25:10.595Z,13.25
2022-10-22T04:27:39.093Z,11.57
2022-10-22T04:30:09.663Z,12.52
2022-10-22T04:32:37.890Z,10.55
2022-10-22T04:35:07.248Z,11.50
2022-10-22T04:37:35.575Z,11.15
2022-10-22T04:40:06.214Z,12.23
2022-10-22T04:42:34.648Z,12.48
2022-10-22T04:45:02.971Z,13.27
2022-10-22T04:47:31.223Z,13.43
2022-10-22T04:50:00.680Z,16.60
2022-10-22T04:52:28.954Z,13.98
2022-10-22T04:54:59.062Z,11.25
2022-10-22T04:57:31.355Z,10.40
2022-10-22T04:59:59.586Z,15.57
2022-10-22T05:02:29.106Z,11.95
2022-10-22T05:04:57.303Z,10.88
2022-10-22T05:07:26.831Z,11.60
2022-10-22T05:09:55.278Z,13.35
2022-10-22T05:12:23.816Z,14.30
2022-10-22T05:14:56.055Z,14.82
2022-10-22T05:17:24.255Z,13.18
2022-10-22T05:19:52.611Z,13.30
2022-10-22T05:22:20.768Z,15.25
2022-10-22T05:24:49.707Z,10.38
2022-10-22T05:29:52.701Z,11.68
2022-10-22T05:32:21.045Z,11.55
2022-10-22T05:34:49.349Z,14.93
2022-10-22T05:37:17.512Z,14.65
2022-10-22T05:39:45.700Z,11.43
2022-10-22T05:42:16.094Z,13.68
2022-10-22T05:44:44.307Z,14.90
2022-10-22T05:47:13.926Z,13.27
2022-10-22T05:49:42.268Z,15.90
2022-10-22T05:52:10.465Z,12.15
2022-10-22T05:54:38.863Z,13.43
2022-10-22T05:57:07.184Z,14.75
2022-10-22T05:59:48.253Z,12.90
2022-10-22T06:02:32.926Z,13.73
2022-10-22T06:05:08.829Z,16.65
2022-10-22T06:08:54.508Z,15.40
2022-10-22T06:16:18.920Z,11.90
2022-10-22T06:18:52.510Z,15.27
2022-10-22T06:24:46.533Z,16.20
2022-10-22T06:43:07.613Z,16.02
2022-10-22T06:45:39.602Z,18.55
2022-10-22T06:48:09.460Z,16.02
2022-10-22T06:50:43.936Z,12.73
2022-10-22T06:53:12.173Z,12.63
2022-10-22T06:55:45.062Z,15.48
2022-10-22T06:58:16.156Z,17.17
2022-10-22T07:00:44.575Z,14.93
2022-10-22T07:03:14.924Z,14.45
2022-10-22T07:05:43.870Z,15.10
2022-10-22T07:08:12.272Z,14.43
2022-10-22T07:10:43.370Z,18.20
2022-10-22T07:13:13.438Z,16.33
2022-10-22T07:15:42.483Z,13.95
2022-10-22T07:18:11.959Z,14.88
2022-10-22T07:20:41.771Z,11.13
2022-10-22T07:23:12.490Z,13.20
2022-10-22T07:25:49.729Z,9.18
2022-10-22T07:28:20.875Z,12.63
2022-10-22T07:30:55.739Z,12.90
2022-10-22T07:33:25.053Z,13.27
2022-10-22T07:35:58.977Z,12.63
2022-10-22T07:38:27.551Z,13.55
2022-10-22T07:40:57.721Z,15.95
2022-10-22T07:43:27.960Z,11.05
2022-10-22T07:45:56.759Z,13.57
2022-10-22T07:48:25.792Z,11.80
2022-10-22T07:50:54.192Z,13.77
2022-10-22T07:53:25.390Z,11.13
2022-10-22T07:55:54.983Z,15.02
2022-10-22T07:58:24.281Z,12.02
2022-10-22T08:00:58.425Z,14.25
2022-10-22T08:03:27.242Z,15.43
2022-10-22T08:05:56.458Z,14.95
2022-10-22T08:08:30.471Z,19.23
2022-10-22T08:11:02.117Z,10.77
2022-10-22T08:13:33.538Z,13.70
2022-10-22T08:16:04.504Z,11.50
2022-10-22T08:22:04.443Z,15.65
2022-10-22T09:00:28.250Z,15.20
2022-10-22T09:07:13.231Z,12.05
2022-10-22T09:30:27.315Z,14.57
2022-10-22T09:33:52.656Z,12.95
2022-10-22T09:49:03.561Z,9.20
2022-10-22T09:52:32.775Z,12.00
2022-10-22T09:55:59.767Z,10.45
2022-10-22T09:59:00.592Z,15.20
2022-10-22T10:05:02.860Z,15.27
2022-10-22T10:07:49.161Z,9.93
2022-10-22T10:11:14.734Z,10.82
2022-10-22T10:25:16.032Z,19.63
2022-10-22T10:28:53.822Z,14.77
2022-10-22T10:35:44.641Z,11.52
2022-10-22T10:38:37.419Z,15.80
2022-10-22T10:44:08.433Z,15.98
2022-10-22T10:46:45.467Z,10.90
2022-10-22T10:49:21.130Z,12.07
2022-10-22T10:51:59.714Z,13.93
2022-10-22T10:54:40.377Z,15.65
2022-10-22T10:57:21.568Z,17.17
2022-10-22T11:00:06.435Z,14.90
2022-10-22T11:03:30.371Z,20.33
2022-10-22T11:06:11.311Z,13.73
2022-10-22T11:08:50.255Z,21.25
2022-10-22T11:11:27.743Z,15.40
2022-10-22T11:14:04.711Z,16.05
2022-10-22T11:16:40.128Z,17.90
2022-10-22T11:19:22.872Z,17.23
2022-10-22T11:22:08.301Z,18.20
2022-10-22T11:24:46.634Z,14.98
2022-10-22T11:27:28.492Z,17.40
2022-10-22T11:30:03.638Z,15.57
2022-10-22T11:32:34.362Z,19.50
2022-10-22T11:35:08.172Z,14.25
2022-10-22T11:37:39.297Z,15.57
2022-10-22T11:40:16.228Z,14.98
2022-10-22T11:42:50.744Z,16.88
2022-10-22T11:45:32.190Z,19.48
2022-10-22T11:48:16.149Z,18.05
2022-10-22T11:50:53.036Z,17.17
2022-10-22T11:53:31.759Z,14.45
2022-10-22T11:56:06.065Z,13.95
2022-10-22T11:58:42.359Z,18.80
2022-10-22T12:01:31.585Z,18.45
2022-10-22T12:04:23.355Z,19.85
2022-10-22T12:07:01.459Z,15.93
2022-10-22T12:09:32.855Z,17.23
2022-10-22T12:12:16.428Z,15.98
2022-10-22T12:14:57.356Z,15.85
2022-10-22T12:17:27.294Z,15.25
2022-10-22T12:20:03.971Z,17.92
2022-10-22T12:22:37.174Z,17.98
2022-10-22T12:25:20.036Z,18.10
2022-10-22T12:27:53.427Z,18.02
2022-10-22T12:30:24.495Z,17.83
2022-10-22T12:32:55.049Z,16.75
2022-10-22T12:35:28.952Z,20.70
2022-10-22T12:37:59.410Z,19.73
2022-10-22T12:40:30.734Z,19.10
2022-10-22T12:43:01.528Z,17.40
2022-10-22T12:45:33.223Z,15.02
2022-10-22T12:48:04.612Z,18.15
2022-10-22T12:50:38.585Z,15.68
2022-10-22T12:53:08.093Z,18.58
2022-10-22T12:55:36.361Z,16.13
2022-10-22T12:58:07.510Z,16.38
2022-10-22T13:00:37.074Z,16.08
2022-10-22T13:03:08.281Z,13.05
2022-10-22T13:05:39.998Z,20.38
2022-10-22T13:08:13.213Z,16.20
2022-10-22T13:10:43.254Z,15.20
2022-10-22T13:13:34.455Z,15.25
2022-10-22T13:16:21.871Z,17.63
2022-10-22T13:18:50.494Z,15.07
2022-10-22T13:21:34.925Z,14.73
2022-10-22T13:24:19.440Z,15.00
2022-10-22T13:26:51.794Z,15.63
2022-10-22T13:29:22.068Z,10.05
2022-10-22T13:31:53.430Z,17.10
2022-10-22T13:34:24.817Z,14.80
2022-10-22T13:36:54.723Z,14.35
2022-10-22T13:39:25.606Z,15.75
2022-10-22T13:41:53.803Z,13.88
2022-10-22T13:44:22.026Z,17.05
2022-10-22T13:46:50.623Z,13.93
2022-10-22T13:49:22.511Z,12.73
2022-10-22T13:51:52.723Z,10.93
2022-10-22T13:54:25.018Z,13.27
2022-10-22T13:56:53.659Z,16.02
2022-10-22T13:59:23.845Z,13.77
2022-10-22T14:01:53.232Z,12.32
2022-10-22T14:04:21.439Z,13.77
2022-10-22T14:06:49.709Z,8.90
2022-10-22T14:09:24.981Z,12.88
2022-10-22T14:11:53.149Z,11.20
2022-10-22T14:14:21.362Z,9.57
2022-10-22T14:16:49.985Z,13.48
2022-10-22T14:19:19.581Z,12.70
2022-10-22T14:21:49.233Z,16.52
2022-10-22T14:24:17.365Z,11.07
2022-10-22T14:26:46.974Z,13.95
2022-10-22T14:29:15.551Z,13.90
2022-10-22T14:31:45.141Z,13.02
2022-10-22T14:34:16.055Z,14.07
2022-10-22T14:36:44.712Z,12.80
2022-10-22T14:39:13.129Z,13.77
2022-10-22T14:41:42.283Z,13.20
2022-10-22T14:44:14.392Z,10.63
2022-10-22T14:46:44.376Z,12.45
2022-10-22T14:49:12.911Z,13.07
2022-10-22T14:51:41.720Z,11.90
2022-10-22T14:54:09.892Z,14.40
2022-10-22T14:56:38.663Z,18.40
2022-10-22T14:59:06.946Z,11.18
2022-10-22T15:01:36.530Z,10.98
2022-10-22T15:04:05.141Z,14.95
2022-10-22T15:06:33.339Z,14.35
2022-10-22T15:09:01.588Z,18.67
2022-10-22T15:11:29.819Z,13.52
2022-10-22T15:13:58.004Z,11.93
2022-10-22T15:16:26.289Z,14.95
2022-10-22T15:18:57.170Z,12.73
2022-10-22T15:21:26.231Z,11.95
2022-10-22T15:23:54.468Z,13.25
2022-10-22T15:26:22.675Z,12.68
2022-10-22T15:28:50.895Z,10.93
2022-10-22T15:31:47.608Z,16.65
2022-10-22T15:34:21.631Z,16.60
2022-10-22T15:36:50.204Z,11.68
2022-10-22T15:39:19.426Z,16.33
2022-10-22T15:41:50.793Z,15.43
2022-10-22T15:44:21.100Z,9.10
2022-10-22T15:49:26.293Z,11.20
2022-10-22T15:51:55.055Z,15.63
2022-10-22T15:57:06.229Z,13.57
2022-10-22T15:59:46.817Z,14.73
2022-10-22T16:02:40.978Z,14.18
2022-10-22T16:05:28.576Z,16.80
2022-10-22T16:07:59.514Z,16.13
2022-10-22T16:10:44.236Z,13.88
2022-10-22T16:13:12.563Z,13.55
2022-10-22T16:15:40.923Z,14.32
2022-10-22T16:18:15.051Z,15.73
2022-10-22T16:20:46.586Z,11.45
2022-10-22T16:23:19.063Z,16.10
2022-10-22T16:25:47.779Z,15.35
2022-10-22T16:28:18.475Z,13.73
2022-10-22T16:30:46.866Z,14.35
2022-10-22T16:33:15.284Z,13.70
2022-10-22T16:35:53.421Z,14.07
2022-10-22T16:38:21.862Z,12.18
2022-10-22T16:41:10.088Z,12.35
2022-10-22T16:43:41.066Z,15.10
2022-10-22T16:46:23.254Z,14.23
2022-10-22T16:49:03.624Z,19.13
2022-10-22T16:51:35.195Z,17.02
2022-10-22T16:54:05.671Z,15.57
2022-10-22T16:56:52.655Z,13.65
2022-10-22T16:59:20.953Z,15.00
2022-10-22T17:04:36.222Z,17.95
2022-10-22T17:07:12.244Z,14.70
2022-10-22T17:09:41.593Z,13.50
2022-10-22T17:12:12.634Z,17.60
2022-10-22T17:14:46.550Z,15.82
2022-10-22T17:17:17.883Z,16.02
2022-10-22T17:19:50.943Z,17.25
2022-10-22T17:22:20.520Z,20.35
2022-10-22T17:24:48.891Z,20.38
2022-10-22T17:27:17.062Z,16.08
2022-10-22T17:29:45.296Z,15.57
2022-10-22T17:32:13.451Z,15.75
2022-10-22T17:34:41.613Z,15.20
2022-10-22T17:37:09.773Z,15.30
2022-10-22T17:39:39.340Z,15.85
2022-10-22T17:42:07.552Z,18.95
2022-10-22T17:44:35.921Z,18.48
2022-10-22T17:47:04.380Z,15.65
2022-10-22T17:49:32.601Z,19.75
2022-10-22T17:54:34.640Z,15.45
2022-10-22T17:57:05.344Z,19.33
2022-10-22T17:59:34.409Z,17.17
2022-10-22T18:02:03.438Z,19.42
2022-10-22T18:04:34.418Z,18.05
2022-10-22T18:07:02.566Z,17.75
2022-10-22T18:09:30.831Z,16.63
2022-10-22T18:11:59.239Z,16.27
2022-10-22T18:14:29.543Z,13.98
2022-10-22T18:16:58.306Z,17.70
2022-10-22T18:19:26.799Z,15.90
2022-10-22T18:21:56.202Z,18.58
2022-10-22T18:24:24.502Z,20.63
2022-10-22T18:26:53.959Z,15.15
2022-10-22T18:29:22.421Z,18.67
2022-10-22T18:31:52.584Z,15.18
2022-10-22T18:34:23.206Z,18.33
2022-10-22T18:36:52.307Z,14.95
2022-10-22T18:39:22.923Z,16.25
2022-10-22T18:41:51.327Z,18.20
2022-10-22T18:44:20.626Z,17.08
2022-10-22T18:46:48.885Z,16.45
2022-10-22T18:49:20.167Z,14.75
2022-10-22T18:51:52.835Z,17.30
2022-10-22T18:54:23.961Z,17.77
2022-10-22T18:56:53.570Z,18.30
2022-10-22T18:59:25.234Z,17.50
2022-10-22T19:01:54.794Z,15.88
2022-10-22T19:04:24.373Z,14.57
2022-10-22T19:06:55.969Z,16.15
2022-10-22T19:09:26.956Z,14.30
2022-10-22T19:11:55.128Z,14.20
2022-10-22T19:14:23.343Z,19.95
2022-10-22T19:16:51.539Z,16.85
2022-10-22T19:19:24.382Z,15.63
2022-10-22T19:21:52.882Z,13.90
2022-10-22T19:24:21.832Z,16.40
2022-10-22T19:26:50.724Z,18.70
2022-10-22T19:29:21.221Z,18.27
2022-10-22T19:31:51.145Z,15.68
2022-10-22T19:34:19.960Z,14.38
2022-10-22T19:36:51.714Z,15.73
2022-10-22T19:39:20.693Z,15.85
2022-10-22T19:41:49.250Z,18.73
2022-10-22T19:44:17.444Z,15.93
2022-10-22T19:46:45.594Z,16.70
2022-10-22T19:49:18.961Z,17.20
2022-10-22T19:51:51.609Z,15.43
2022-10-22T19:54:20.563Z,19.10
2022-10-22T19:56:49.344Z,20.95
2022-10-22T19:59:22.722Z,20.02
2022-10-22T20:02:05.130Z,17.17
2022-10-22T20:04:34.124Z,15.30
2022-10-22T20:07:06.275Z,17.92
2022-10-22T20:09:34.491Z,22.00
2022-10-22T20:12:09.061Z,21.10
2022-10-22T20:14:39.860Z,17.98
2022-10-22T20:17:08.131Z,15.23
2022-10-22T20:19:36.348Z,16.70
2022-10-22T20:22:06.126Z,17.98
2022-10-22T20:24:37.935Z,18.38
2022-10-22T20:29:48.849Z,16.88
2022-10-22T20:32:17.229Z,17.45
2022-10-22T20:34:45.439Z,17.08
2022-10-22T20:37:15.013Z,15.13
2022-10-22T20:39:43.190Z,17.38
2022-10-22T20:42:11.345Z,18.15
2022-10-22T20:44:40.055Z,17.73
2022-10-22T20:47:09.408Z,16.73
2022-10-22T20:49:38.241Z,17.17
2022-10-22T20:52:06.802Z,22.77
2022-10-22T20:54:47.256Z,20.30
2022-10-22T20:57:15.497Z,21.33
2022-10-22T20:59:44.058Z,18.90
2022-10-22T21:02:12.753Z,20.70
2022-10-22T21:04:44.061Z,22.08
2022-10-22T21:07:13.942Z,19.20
2022-10-22T21:09:43.834Z,18.55
2022-10-22T21:12:12.103Z,21.52
2022-10-22T21:14:40.434Z,17.67
2022-10-22T21:17:09.221Z,20.27
2022-10-22T21:19:37.780Z,17.75
2022-10-22T21:22:06.034Z,18.48
2022-10-22T21:24:34.362Z,16.38
2022-10-22T21:27:04.387Z,16.55
2022-10-22T21:29:32.700Z,16.05
2022-10-22T21:32:00.965Z,15.23
2022-10-22T21:34:29.324Z,13.82
2022-10-22T21:36:57.544Z,16.52
2022-10-22T21:39:25.793Z,16.85
2022-10-22T21:41:54.169Z,17.40
2022-10-22T21:44:23.785Z,15.88
2022-10-22T21:46:51.968Z,19.98
2022-10-22T21:49:20.496Z,20.75
2022-10-22T21:51:49.985Z,16.15
2022-10-22T21:54:18.249Z,17.63
2022-10-22T21:56:46.558Z,18.08
2022-10-22T21:59:14.854Z,18.90
2022-10-22T22:01:46.984Z,19.30
2022-10-22T22:04:15.399Z,18.48
2022-10-22T22:06:43.857Z,16.73
2022-10-22T22:09:12.241Z,16.00
2022-10-22T22:11:40.625Z,18.70
2022-10-22T22:14:08.978Z,19.92
2022-10-22T22:16:37.211Z,20.48
2022-10-22T22:19:09.988Z,17.85
2022-10-22T22:21:40.852Z,18.45
2022-10-22T22:24:10.735Z,17.63
2022-10-22T22:26:39.088Z,18.67
2022-10-22T22:29:07.544Z,15.45
2022-10-22T22:31:37.455Z,22.50
2022-10-22T22:34:09.249Z,21.63
2022-10-22T22:36:40.378Z,20.58
2022-10-22T22:39:12.647Z,20.55
2022-10-22T22:41:41.140Z,20.73
2022-10-22T22:44:09.842Z,24.30
2022-10-22T22:46:38.332Z,20.80
2022-10-22T22:49:08.736Z,18.83
2022-10-22T22:51:37.083Z,21.02
2022-10-22T22:54:05.757Z,23.10
2022-10-22T22:56:35.404Z,20.80
2022-10-22T22:59:04.702Z,19.58
2022-10-22T23:01:35.350Z,21.05
2022-10-22T23:04:11.427Z,20.45
2022-10-22T23:06:40.210Z,19.45
2022-10-22T23:09:11.838Z,24.00
2022-10-22T23:11:42.745Z,21.95
2022-10-22T23:14:14.769Z,22.13
2022-10-22T23:16:46.552Z,21.63
2022-10-22T23:19:18.948Z,17.17
2022-10-22T23:21:50.449Z,18.50
2022-10-22T23:24:21.575Z,17.85
2022-10-22T23:26:53.131Z,25.75
2022-10-22T23:29:24.731Z,21.90
2022-10-22T23:31:54.252Z,19.35
2022-10-22T23:34:26.186Z,24.25
2022-10-22T23:36:56.212Z,24.92
2022-10-22T23:39:27.508Z,19.48
2022-10-22T23:41:56.359Z,17.80
2022-10-22T23:44:25.550Z,19.58
2022-10-22T23:46:54.029Z,18.77
2022-10-22T23:49:23.622Z,20.42
2022-10-22T23:51:51.894Z,20.25
2022-10-22T23:54:20.345Z,21.67
2022-10-22T23:56:48.873Z,17.90
2022-10-22T23:59:17.428Z,26.42
